El Paso International Airport
KELP : now visible

Aeroporto :











RITROVATECI SU...

 
LOGIN :

Iscrizione | Disclaimer

   EN    FR    IT 

 









Sommario :    VFR   VFR Marginale   IFR   IFR Intensivo   IFR Molto Intensivo
Visibilità : 
Base nubi : 
>= 8 km
>= 3000ft
5 / 8 km
1000 / 3000 ft
1500m / 5 km
500 / 1000 ft
800 / 1500m
200 / 500 ft
< 800m
< 200 ft
Simboli :   Temporali  Nebbia  Neve Forte  Precipitazioni Forti  Vento > 20 kt






- Altitudine del aeroporto : 3959 ft
- Codice IATA : ELP


KELP - El Paso International

ULTIMO METAR :
  • 100851Z 18004KT 10SM FEW150 31/05 A2996 RMK AO2 SLP053 T03060050 51004

METARs OBSOLETI :
  • 100751Z 16005KT 10SM FEW150 31/04 A2996 RMK AO2 SLP053 T03110044
  • 100651Z 11008KT 10SM FEW150 31/03 A2996 RMK AO2 SLP052 T03110028 404280278
  • 100551Z 14004KT 10SM FEW120 32/03 A2995 RMK AO2 SLP049 T03220028 10422 20306 53014

TAF KELP
Valido dal 10 a 06 ore il 11 a 06 ore UTC


100539Z 1006/1106 VRB05KT P6SM FEW120
FM101900 15008KT P6SM FEW120
FIR KZAB / America del Nord



MetMap, La meteo Aeronautica in un colpo d'occhio ! - Copyright ORBIFLY Dicembre 2007 - Disclaimer

ORBIFLY MET'MAP TEAM :

Programmazione e sviluppo : Alexandra Zaïnal
Concezione : Baudouin d'Aumeries
Aiuto per la programmazione : Marc-Olivier Méhu
Supporto tecnico e logistico : Manuel Goepfert
Aiuto per la traduzione : Arnaldo La Scala

Contatto : metmap@orbifly.com




FONTI E CREDITI :

   NOAA       Earth
Advisory